Time;durP1;ratioP1;P1;durP2;ratioP2;P2;SDS_P1;SDS_P2;PMS_P1;PMS_P2;Temp;Humidity;BMP_temperature;BMP_pressure;BME280_temperature;BME280_humidity;BME280_pressure;Samples;Min_cycle;Max_cycle;Signal;HPM_P1;HPM_P2
2022/01/21 00:01:29;;;;;;;51.47;14.20;;;7.00;90.70;;;;;;6183300;23;20138;-63
2022/01/21 00:03:55;;;;;;;55.13;11.85;;;7.00;90.70;;;;;;6235924;23;20284;-63
2022/01/21 00:06:21;;;;;;;54.78;13.60;;;7.00;90.70;;;;;;6182743;23;20012;-64
2022/01/21 00:08:47;;;;;;;49.58;12.85;;;7.00;90.70;;;;;;6206765;22;20004;-64
2022/01/21 00:11:13;;;;;;;49.45;13.18;;;6.90;90.70;;;;;;6208567;23;20004;-64
2022/01/21 00:13:39;;;;;;;51.97;11.63;;;6.90;90.70;;;;;;6236627;23;20004;-62
2022/01/21 00:16:06;;;;;;;49.47;11.85;;;6.90;90.60;;;;;;6206078;23;20030;-63
2022/01/21 00:18:33;;;;;;;48.97;11.35;;;6.90;90.70;;;;;;6207243;23;20008;-63
2022/01/21 00:31:54;;;;;;;51.85;10.85;;;6.80;90.70;;;;;;6213361;23;20628;-63
2022/01/21 00:34:20;;;;;;;37.28;9.50;;;6.80;90.70;;;;;;6207184;23;20305;-63
2022/01/21 00:36:46;;;;;;;47.35;9.77;;;6.80;90.70;;;;;;6181718;23;20444;-60
2022/01/21 00:39:12;;;;;;;40.78;10.85;;;6.80;90.70;;;;;;6231924;23;20038;-63
2022/01/21 00:41:43;;;;;;;45.15;10.20;;;6.80;90.70;;;;;;6233952;23;20011;-64
2022/01/21 00:44:09;;;;;;;47.95;9.63;;;6.80;90.70;;;;;;6184784;23;20065;-62
2022/01/21 00:46:34;;;;;;;37.22;9.93;;;6.80;90.70;;;;;;6183366;23;20376;-63
2022/01/21 00:49:01;;;;;;;29.15;9.40;;;6.80;90.70;;;;;;6234419;23;20464;-64
2022/01/21 00:51:27;;;;;;;37.08;9.90;;;6.70;90.70;;;;;;6233895;22;20039;-63
2022/01/21 00:53:53;;;;;;;40.70;9.57;;;6.70;90.60;;;;;;6235461;23;20019;-62
2022/01/21 00:56:18;;;;;;;29.33;8.75;;;6.70;90.70;;;;;;6235713;23;20042;-63
2022/01/21 00:58:44;;;;;;;44.97;9.65;;;6.70;90.70;;;;;;6209188;23;20036;-63
2022/01/21 01:01:09;;;;;;;36.67;9.52;;;6.70;90.70;;;;;;6234033;23;20034;-60
2022/01/21 01:03:35;;;;;;;29.00;8.88;;;6.70;90.70;;;;;;6233277;22;20317;-60
2022/01/21 01:06:00;;;;;;;38.28;8.63;;;6.70;90.70;;;;;;6207914;23;20168;-63
2022/01/21 01:08:26;;;;;;;34.70;9.32;;;6.60;90.70;;;;;;6184113;23;20007;-64
2022/01/21 01:21:30;;;;;;;29.25;10.18;;;6.60;90.50;;;;;;6236001;23;20162;-64
2022/01/21 01:24:05;;;;;;;28.80;9.27;;;6.60;90.50;;;;;;6208223;23;20008;-63
2022/01/21 01:29:16;;;;;;;31.13;9.20;;;6.60;90.50;;;;;;6189468;22;20082;-63
2022/01/21 01:31:42;;;;;;;34.97;9.27;;;6.50;90.50;;;;;;6207527;23;20012;-61
2022/01/21 01:34:07;;;;;;;31.40;8.95;;;6.50;90.60;;;;;;6208232;23;20474;-62
2022/01/21 01:36:33;;;;;;;30.35;9.02;;;6.50;90.50;;;;;;6208276;23;20092;-63
2022/01/21 01:41:35;;;;;;;24.58;8.30;;;6.50;90.60;;;;;;6207252;23;20574;-64
2022/01/21 01:49:36;;;;;;;32.85;8.80;;;6.50;90.50;;;;;;6235312;23;20062;-62
2022/01/21 01:52:15;;;;;;;30.73;9.20;;;6.50;90.40;;;;;;6209310;23;20030;-64
2022/01/21 01:54:43;;;;;;;27.38;8.32;;;6.50;90.40;;;;;;6233049;23;20128;-61
2022/01/21 01:57:08;;;;;;;25.70;8.40;;;6.40;90.40;;;;;;6205996;23;20107;-64
2022/01/21 01:59:34;;;;;;;29.95;9.15;;;6.40;90.40;;;;;;6236082;23;20008;-64
2022/01/21 02:02:01;;;;;;;31.70;7.75;;;6.40;90.50;;;;;;6209057;23;20008;-62
2022/01/21 02:04:27;;;;;;;28.48;7.18;;;6.40;90.40;;;;;;6207495;23;20147;-61
2022/01/21 02:06:52;;;;;;;24.63;7.05;;;6.40;90.40;;;;;;6207235;23;20065;-64
2022/01/21 02:09:18;;;;;;;37.95;8.38;;;6.40;90.40;;;;;;6233053;22;20323;-63
2022/01/21 02:11:44;;;;;;;32.30;8.25;;;6.40;90.40;;;;;;6207769;23;20306;-64
2022/01/21 02:14:14;;;;;;;29.45;7.43;;;6.40;90.40;;;;;;6208458;23;20004;-61
2022/01/21 02:21:28;;;;;;;17.77;7.57;;;6.40;90.40;;;;;;6184260;23;20353;-63
2022/01/21 02:22:22;;;;;;;22.35;8.25;;;6.30;90.40;;;;;;6189156;22;20130;-60
2022/01/21 02:24:52;;;;;;;19.42;7.35;;;6.30;90.40;;;;;;6234713;23;20015;-60
2022/01/21 02:27:17;;;;;;;21.65;6.70;;;6.30;90.40;;;;;;6235904;23;20028;-58
2022/01/21 02:29:48;;;;;;;19.83;7.40;;;6.30;90.40;;;;;;6183854;23;20000;-59
2022/01/21 02:32:15;;;;;;;21.73;7.00;;;6.30;90.40;;;;;;6208342;23;20075;-63
2022/01/21 02:34:41;;;;;;;25.55;8.98;;;6.30;90.50;;;;;;6232874;22;20000;-59
2022/01/21 02:37:06;;;;;;;19.42;7.32;;;6.30;90.50;;;;;;6233420;22;20397;-60
2022/01/21 02:39:32;;;;;;;18.75;7.68;;;6.30;90.30;;;;;;6158958;23;20087;-62
2022/01/21 02:41:57;;;;;;;23.40;8.73;;;6.20;90.20;;;;;;6183543;23;20000;-64
2022/01/21 02:44:24;;;;;;;25.13;8.68;;;6.20;90.20;;;;;;6234264;23;20078;-64
2022/01/21 02:46:58;;;;;;;23.98;7.95;;;6.30;90.30;;;;;;6233075;23;20026;-64
2022/01/21 02:49:24;;;;;;;18.15;7.72;;;6.20;90.30;;;;;;6208576;23;20005;-65
2022/01/21 02:51:51;;;;;;;22.48;8.02;;;6.20;90.30;;;;;;6207865;23;20110;-62
2022/01/21 02:54:17;;;;;;;21.13;7.82;;;6.30;90.30;;;;;;6207888;23;20498;-65
2022/01/21 02:56:42;;;;;;;18.52;7.07;;;6.20;90.30;;;;;;6182173;23;20102;-61
2022/01/21 02:59:08;;;;;;;17.02;6.63;;;6.20;90.30;;;;;;6233116;23;20016;-61
2022/01/21 03:01:35;;;;;;;16.33;6.97;;;6.20;90.30;;;;;;6179956;23;20022;-62
2022/01/21 03:04:02;;;;;;;17.08;6.78;;;6.20;90.30;;;;;;6206555;23;20497;-61
2022/01/21 03:06:27;;;;;;;22.23;7.00;;;6.20;90.30;;;;;;6179450;23;20020;-64
2022/01/21 03:09:00;;;;;;;23.00;7.25;;;6.20;90.30;;;;;;6206873;23;20016;-61
2022/01/21 03:11:26;;;;;;;18.85;7.95;;;6.20;90.30;;;;;;6206366;23;20425;-62
2022/01/21 03:13:52;;;;;;;17.00;7.28;;;6.20;90.20;;;;;;6205319;23;20039;-64
2022/01/21 03:16:17;;;;;;;21.42;7.72;;;6.10;90.20;;;;;;6231531;22;20342;-64
2022/01/21 03:18:43;;;;;;;19.63;7.70;;;6.10;90.30;;;;;;6208619;23;20080;-63
2022/01/21 03:21:11;;;;;;;17.60;7.13;;;6.10;90.30;;;;;;6204877;23;20001;-62
2022/01/21 03:23:37;;;;;;;20.35;7.45;;;6.10;90.30;;;;;;6234909;23;20004;-64
2022/01/21 03:26:02;;;;;;;24.38;8.20;;;6.10;90.30;;;;;;6206957;23;20756;-64
2022/01/21 03:28:29;;;;;;;15.73;7.30;;;6.10;90.30;;;;;;6235338;22;20043;-64
2022/01/21 03:30:56;;;;;;;15.82;7.40;;;6.10;90.30;;;;;;6208308;23;20046;-64
2022/01/21 03:33:23;;;;;;;15.95;6.80;;;6.10;90.30;;;;;;6236358;23;20317;-61
2022/01/21 03:35:50;;;;;;;16.70;6.65;;;6.10;90.30;;;;;;6235434;23;20008;-61
2022/01/21 03:38:17;;;;;;;15.77;6.55;;;6.00;90.20;;;;;;6206678;23;20000;-61
2022/01/21 03:40:43;;;;;;;19.95;6.47;;;6.00;90.30;;;;;;6182210;23;20062;-63
2022/01/21 03:43:10;;;;;;;20.45;6.88;;;6.00;90.30;;;;;;6207838;23;20429;-63
2022/01/21 03:45:35;;;;;;;13.05;6.38;;;6.00;90.30;;;;;;6207964;23;20050;-64
2022/01/21 03:48:01;;;;;;;25.92;7.05;;;6.00;90.30;;;;;;6236752;23;20008;-62
2022/01/21 03:50:32;;;;;;;16.58;6.55;;;6.00;90.40;;;;;;6234198;23;20322;-63
2022/01/21 03:52:59;;;;;;;13.65;5.85;;;6.00;90.30;;;;;;6233458;22;20463;-63
2022/01/21 03:55:25;;;;;;;17.15;6.20;;;6.00;90.30;;;;;;6234133;22;20083;-64
2022/01/21 03:57:50;;;;;;;16.00;6.65;;;6.00;90.30;;;;;;6186425;23;20044;-64
2022/01/21 04:00:20;;;;;;;18.67;5.85;;;5.90;90.30;;;;;;6178823;23;20296;-63
2022/01/21 04:02:45;;;;;;;18.52;6.85;;;5.90;90.30;;;;;;6178518;23;20082;-65
2022/01/21 04:05:11;;;;;;;14.50;6.15;;;5.90;90.20;;;;;;6175136;23;20064;-63
2022/01/21 04:07:36;;;;;;;15.32;5.82;;;5.90;90.20;;;;;;6202868;23;20092;-62
2022/01/21 04:10:03;;;;;;;14.27;6.18;;;5.90;90.30;;;;;;6154599;23;20001;-63
2022/01/21 04:12:29;;;;;;;14.25;6.57;;;5.90;90.30;;;;;;6206638;23;20090;-64
2022/01/21 04:14:56;;;;;;;13.20;6.20;;;5.90;90.30;;;;;;6205004;23;20422;-64
2022/01/21 04:17:23;;;;;;;14.70;6.10;;;5.90;90.30;;;;;;6202943;23;20005;-63
2022/01/21 04:19:48;;;;;;;15.63;5.78;;;5.80;90.30;;;;;;6203771;23;20465;-63
2022/01/21 04:22:14;;;;;;;15.73;6.18;;;5.90;90.40;;;;;;6203895;23;20004;-62
2022/01/21 04:24:40;;;;;;;15.75;6.50;;;5.80;90.40;;;;;;6177948;23;20015;-61
2022/01/21 04:27:05;;;;;;;16.60;5.63;;;5.80;90.40;;;;;;6179161;23;20004;-63
2022/01/21 04:29:31;;;;;;;14.77;6.10;;;5.80;90.40;;;;;;6205231;23;20015;-64
2022/01/21 04:31:56;;;;;;;18.48;5.28;;;5.80;90.40;;;;;;6203240;23;20004;-63
2022/01/21 04:34:22;;;;;;;12.55;6.00;;;5.80;90.30;;;;;;6202956;23;20015;-64
2022/01/21 04:36:47;;;;;;;12.65;5.78;;;5.80;90.40;;;;;;6177603;23;20028;-64
2022/01/21 04:39:20;;;;;;;19.25;6.50;;;5.80;90.40;;;;;;6202963;23;20009;-63
2022/01/21 04:49:39;;;;;;;18.52;7.30;;;5.80;90.30;;;;;;6206086;23;20382;-61
2022/01/21 04:52:05;;;;;;;19.88;7.28;;;5.70;90.30;;;;;;6177506;23;20001;-62
2022/01/21 04:54:31;;;;;;;15.27;6.03;;;5.80;90.40;;;;;;6204321;23;20055;-64
2022/01/21 04:56:56;;;;;;;14.75;6.78;;;5.70;90.40;;;;;;6138965;23;20024;-61
2022/01/21 04:59:22;;;;;;;14.73;6.85;;;5.80;90.40;;;;;;6181007;23;20031;-62
2022/01/21 05:01:47;;;;;;;25.88;7.68;;;5.70;90.40;;;;;;6181592;23;20008;-60
2022/01/21 05:04:13;;;;;;;23.77;7.07;;;5.70;90.40;;;;;;6182920;23;20414;-60
2022/01/21 05:06:40;;;;;;;22.13;7.22;;;5.70;90.40;;;;;;6206765;23;20403;-61
2022/01/21 05:09:06;;;;;;;24.25;7.10;;;5.70;90.40;;;;;;6206049;23;20665;-62
2022/01/21 05:11:36;;;;;;;21.70;6.97;;;5.70;90.40;;;;;;6234046;23;20296;-62
2022/01/21 05:14:13;;;;;;;17.05;7.30;;;5.70;90.40;;;;;;6208383;23;20433;-61
2022/01/21 05:16:45;;;;;;;23.20;6.95;;;5.70;90.40;;;;;;6235044;23;20030;-60
2022/01/21 05:19:15;;;;;;;12.85;5.78;;;5.70;90.40;;;;;;6235499;23;20011;-59
2022/01/21 05:21:44;;;;;;;12.02;5.72;;;5.70;90.30;;;;;;6233899;23;20004;-62
2022/01/21 05:24:10;;;;;;;13.80;6.68;;;5.60;90.30;;;;;;6180050;23;20095;-61
2022/01/21 05:26:38;;;;;;;34.58;7.72;;;5.70;90.20;;;;;;6206738;23;20511;-59
2022/01/21 05:29:07;;;;;;;95.57;12.65;;;5.60;90.20;;;;;;6208075;23;20023;-59
2022/01/21 05:31:33;;;;;;;66.60;11.02;;;5.60;90.20;;;;;;6181817;23;20310;-62
2022/01/21 05:33:59;;;;;;;166.43;17.67;;;5.60;90.30;;;;;;6183172;23;20255;-60
2022/01/21 05:36:26;;;;;;;168.52;18.67;;;5.60;90.30;;;;;;6205098;23;20300;-59
2022/01/21 05:38:52;;;;;;;165.32;18.33;;;5.60;90.30;;;;;;6205704;23;20014;-62
2022/01/21 05:41:19;;;;;;;245.13;21.60;;;5.60;90.30;;;;;;6207877;23;20185;-59
2022/01/21 05:43:46;;;;;;;213.20;22.00;;;5.60;90.30;;;;;;6235024;23;20004;-61
2022/01/21 05:49:11;;;;;;;162.40;17.98;;;5.50;90.30;;;;;;6181995;23;20062;-59
2022/01/21 05:51:38;;;;;;;155.82;18.17;;;5.50;90.40;;;;;;6231617;23;20008;-61
2022/01/21 05:54:04;;;;;;;148.63;16.35;;;5.50;90.40;;;;;;6181674;23;20004;-59
2022/01/21 05:56:31;;;;;;;152.15;17.60;;;5.50;90.50;;;;;;6235326;23;20039;-62
2022/01/21 05:58:56;;;;;;;157.68;16.95;;;5.50;90.50;;;;;;6183428;23;20004;-61
2022/01/21 06:01:22;;;;;;;123.68;14.88;;;5.50;90.50;;;;;;6156453;22;20116;-58
2022/01/21 06:03:48;;;;;;;133.25;16.23;;;5.50;90.40;;;;;;6234562;23;20008;-59
2022/01/21 06:06:13;;;;;;;125.45;16.60;;;5.40;90.40;;;;;;6181822;23;20037;-58
2022/01/21 06:08:39;;;;;;;121.15;14.48;;;5.40;90.50;;;;;;6207657;23;20075;-61
2022/01/21 06:11:04;;;;;;;105.28;13.45;;;5.40;90.50;;;;;;6157786;23;20066;-60
2022/01/21 06:13:30;;;;;;;92.07;14.00;;;5.40;90.50;;;;;;6158053;23;20008;-61
2022/01/21 06:15:57;;;;;;;121.95;15.77;;;5.40;90.50;;;;;;6204452;22;20008;-61
2022/01/21 06:18:22;;;;;;;110.93;13.07;;;5.40;90.60;;;;;;6207291;23;20503;-60
2022/01/21 06:20:48;;;;;;;81.82;12.90;;;5.40;90.70;;;;;;6207101;23;20008;-62
2022/01/21 06:23:13;;;;;;;104.10;14.05;;;5.40;90.70;;;;;;6233645;23;20036;-60
2022/01/21 06:25:39;;;;;;;105.68;13.90;;;5.40;90.80;;;;;;6233205;23;20003;-61
2022/01/21 06:28:04;;;;;;;107.88;14.05;;;5.40;90.80;;;;;;6233444;23;20464;-62
2022/01/21 06:30:30;;;;;;;93.13;13.32;;;5.30;90.70;;;;;;6204175;23;20004;-62
2022/01/21 06:32:55;;;;;;;80.65;12.05;;;5.30;90.60;;;;;;6206429;23;19996;-59
2022/01/21 06:35:21;;;;;;;88.93;13.80;;;5.40;90.60;;;;;;6204976;23;20019;-60
2022/01/21 06:37:46;;;;;;;99.57;14.75;;;5.40;90.60;;;;;;6207233;23;20015;-59
2022/01/21 06:40:14;;;;;;;114.00;14.77;;;5.40;90.60;;;;;;6233066;23;20011;-59
2022/01/21 06:42:39;;;;;;;107.47;15.02;;;5.30;90.60;;;;;;6205553;22;20334;-60
2022/01/21 06:45:05;;;;;;;118.90;14.30;;;5.30;90.60;;;;;;6206824;23;20004;-61
2022/01/21 06:47:30;;;;;;;85.78;13.60;;;5.30;90.60;;;;;;6208660;23;20004;-59
2022/01/21 06:49:59;;;;;;;106.13;14.05;;;5.30;90.60;;;;;;6233614;23;20337;-60
2022/01/21 06:52:26;;;;;;;66.00;11.02;;;5.20;90.60;;;;;;6206244;23;20000;-61
2022/01/21 06:54:51;;;;;;;91.45;13.45;;;5.20;90.60;;;;;;6203208;22;20035;-60
2022/01/21 06:57:17;;;;;;;101.75;14.60;;;5.20;90.70;;;;;;6232036;22;20475;-59
2022/01/21 06:59:42;;;;;;;76.88;12.43;;;5.20;90.70;;;;;;6209265;23;20011;-60
2022/01/21 07:02:08;;;;;;;86.55;13.43;;;5.20;90.70;;;;;;6237110;23;20087;-65
2022/01/21 07:04:33;;;;;;;89.45;15.02;;;5.20;90.70;;;;;;6236095;23;20338;-64
2022/01/21 07:07:00;;;;;;;72.47;12.93;;;5.20;90.70;;;;;;6208450;23;20615;-62
2022/01/21 07:09:26;;;;;;;76.75;12.52;;;5.20;90.60;;;;;;6234331;22;20000;-64
2022/01/21 07:11:52;;;;;;;69.60;13.15;;;5.20;90.50;;;;;;6183745;23;20015;-62
2022/01/21 07:14:17;;;;;;;74.25;12.63;;;5.20;90.60;;;;;;6233967;23;20181;-64
2022/01/21 07:16:43;;;;;;;76.63;12.98;;;5.10;90.50;;;;;;6183737;23;20000;-62
2022/01/21 07:19:08;;;;;;;72.20;11.00;;;5.10;90.50;;;;;;6234043;23;20004;-61
2022/01/21 07:21:34;;;;;;;64.38;13.43;;;5.10;90.50;;;;;;6206872;23;20252;-63
2022/01/21 07:23:59;;;;;;;61.97;12.02;;;5.10;90.50;;;;;;6233196;22;20558;-63
2022/01/21 07:26:26;;;;;;;55.45;11.13;;;5.10;90.50;;;;;;6235090;23;20000;-62
2022/01/21 07:28:51;;;;;;;59.75;11.85;;;5.00;90.50;;;;;;6231989;23;20076;-64
2022/01/21 07:31:17;;;;;;;55.45;10.77;;;5.00;90.50;;;;;;6206163;23;20615;-63
2022/01/21 07:33:42;;;;;;;45.38;11.18;;;5.00;90.60;;;;;;6204155;23;20385;-63
2022/01/21 07:36:08;;;;;;;46.85;10.23;;;5.00;90.50;;;;;;6202925;23;20008;-61
2022/01/21 07:38:34;;;;;;;59.63;9.45;;;5.00;90.60;;;;;;6204970;23;20015;-63
2022/01/21 07:40:59;;;;;;;73.47;11.88;;;5.00;90.50;;;;;;6207919;23;20011;-63
2022/01/21 07:43:25;;;;;;;53.10;11.35;;;5.00;90.50;;;;;;6206637;23;20019;-62
2022/01/21 07:45:50;;;;;;;55.92;11.52;;;4.90;90.40;;;;;;6205529;23;20093;-64
2022/01/21 07:48:16;;;;;;;46.42;8.50;;;5.00;90.40;;;;;;6206181;23;20034;-63
2022/01/21 07:50:41;;;;;;;46.10;10.80;;;4.90;90.40;;;;;;6232112;23;20036;-61
2022/01/21 07:53:07;;;;;;;50.33;8.88;;;4.90;90.40;;;;;;6206279;23;20043;-63
2022/01/21 07:55:32;;;;;;;42.78;9.38;;;4.90;90.30;;;;;;6204786;23;20027;-62
2022/01/21 07:58:00;;;;;;;38.00;8.90;;;4.90;90.30;;;;;;6205517;23;20016;-62
2022/01/21 08:00:26;;;;;;;46.35;9.55;;;4.90;90.30;;;;;;6199769;23;20341;-64
2022/01/21 08:02:51;;;;;;;38.55;8.55;;;4.90;90.30;;;;;;6202587;23;20034;-61
2022/01/21 08:05:17;;;;;;;42.13;9.85;;;4.90;90.40;;;;;;6206627;23;20084;-64
2022/01/21 08:07:42;;;;;;;47.10;9.88;;;4.90;90.40;;;;;;6233846;23;20418;-62
2022/01/21 08:10:08;;;;;;;35.33;9.35;;;4.90;90.40;;;;;;6206243;23;20000;-64
2022/01/21 08:12:33;;;;;;;54.25;11.30;;;4.90;90.40;;;;;;6231026;22;20422;-61
2022/01/21 08:14:59;;;;;;;37.65;10.27;;;4.90;90.40;;;;;;6233377;23;20008;-62
2022/01/21 08:17:24;;;;;;;48.55;13.10;;;4.90;90.40;;;;;;6178795;23;20488;-61
2022/01/21 08:19:50;;;;;;;39.50;11.00;;;4.90;90.40;;;;;;6231865;23;20082;-64
2022/01/21 08:22:15;;;;;;;34.30;11.15;;;4.90;90.50;;;;;;6205352;23;20046;-63
2022/01/21 08:24:41;;;;;;;48.83;10.88;;;4.90;90.50;;;;;;6203830;23;20370;-60
2022/01/21 08:27:07;;;;;;;54.35;12.35;;;4.90;90.50;;;;;;6180034;22;20016;-62
2022/01/21 08:29:32;;;;;;;81.25;13.50;;;5.00;90.50;;;;;;6179558;23;20561;-63
2022/01/21 08:31:58;;;;;;;55.25;12.48;;;4.90;90.50;;;;;;6231076;23;20376;-60
2022/01/21 08:34:23;;;;;;;62.30;12.25;;;4.90;90.50;;;;;;6179880;23;20697;-63
2022/01/21 08:36:49;;;;;;;58.40;12.52;;;4.90;90.50;;;;;;6176323;23;20000;-61
2022/01/21 08:39:15;;;;;;;68.65;12.48;;;4.90;90.50;;;;;;6228005;22;20111;-60
2022/01/21 08:41:41;;;;;;;51.28;12.23;;;4.90;90.50;;;;;;6232688;22;20167;-60
2022/01/21 08:44:06;;;;;;;83.10;12.10;;;4.90;90.50;;;;;;6180412;23;20143;-61
2022/01/21 08:46:32;;;;;;;58.30;11.70;;;4.90;90.50;;;;;;6230978;22;20011;-62
2022/01/21 08:48:57;;;;;;;46.35;10.93;;;4.90;90.50;;;;;;6174604;23;20019;-62
2022/01/21 08:51:28;;;;;;;54.50;12.13;;;4.90;90.50;;;;;;6228919;22;20288;-61
2022/01/21 08:53:53;;;;;;;74.50;13.32;;;4.90;90.50;;;;;;6176116;22;20106;-62
2022/01/21 08:56:19;;;;;;;53.05;11.60;;;4.90;90.50;;;;;;6176128;23;20004;-61
2022/01/21 08:58:45;;;;;;;59.20;11.35;;;5.00;90.50;;;;;;6229396;23;20024;-62
2022/01/21 09:01:11;;;;;;;52.97;10.48;;;4.90;90.50;;;;;;6204552;23;20180;-61
2022/01/21 09:03:37;;;;;;;56.30;11.55;;;4.90;90.50;;;;;;6200959;23;20100;-61
2022/01/21 09:06:03;;;;;;;57.42;10.07;;;4.90;90.40;;;;;;6174876;22;20004;-62
2022/01/21 09:08:30;;;;;;;59.38;11.02;;;4.90;90.40;;;;;;6176448;23;20088;-63
2022/01/21 09:10:57;;;;;;;51.80;11.30;;;5.00;90.40;;;;;;6203493;23;20103;-60
2022/01/21 09:13:23;;;;;;;64.10;11.85;;;4.90;90.50;;;;;;6200769;23;20008;-60
2022/01/21 09:15:49;;;;;;;64.18;11.02;;;5.00;90.50;;;;;;6175817;22;20289;-61
2022/01/21 09:18:19;;;;;;;59.47;12.10;;;5.00;90.40;;;;;;6228735;23;20528;-62
2022/01/21 09:20:44;;;;;;;54.25;10.93;;;5.00;90.40;;;;;;6228640;22;20008;-62
2022/01/21 09:23:10;;;;;;;71.90;11.50;;;5.00;90.40;;;;;;6194877;23;20215;-61
2022/01/21 09:25:36;;;;;;;60.28;11.20;;;5.00;90.50;;;;;;6174285;23;20031;-62
2022/01/21 09:28:01;;;;;;;74.70;11.27;;;5.00;90.50;;;;;;6200852;23;20079;-60
2022/01/21 09:30:27;;;;;;;74.90;12.50;;;5.00;90.60;;;;;;6199642;23;20004;-61
2022/01/21 09:32:53;;;;;;;66.82;12.63;;;5.00;90.60;;;;;;6230820;22;20116;-61
2022/01/21 09:35:18;;;;;;;74.38;12.60;;;5.00;90.50;;;;;;6200143;23;20060;-61
2022/01/21 09:37:44;;;;;;;68.10;12.30;;;5.00;90.50;;;;;;6177825;23;20526;-62
2022/01/21 09:40:10;;;;;;;83.45;12.52;;;5.00;90.50;;;;;;6174923;23;20011;-61
2022/01/21 09:42:36;;;;;;;93.13;13.52;;;5.00;90.50;;;;;;6180363;23;20115;-60
2022/01/21 09:45:08;;;;;;;70.88;12.23;;;5.00;90.50;;;;;;6200746;23;20259;-62
2022/01/21 09:47:44;;;;;;;63.72;11.48;;;5.00;90.50;;;;;;6227559;22;20380;-62
2022/01/21 09:50:09;;;;;;;57.50;10.60;;;5.00;90.40;;;;;;6181344;23;20398;-60
2022/01/21 09:52:36;;;;;;;56.35;10.93;;;5.00;90.50;;;;;;6201749;23;20007;-61
2022/01/21 09:55:02;;;;;;;58.42;11.23;;;5.00;90.40;;;;;;6177819;23;20019;-61
2022/01/21 09:57:27;;;;;;;87.90;12.73;;;5.10;90.50;;;;;;6228375;22;20023;-62
2022/01/21 09:59:53;;;;;;;60.78;11.05;;;5.10;90.50;;;;;;6175108;23;20012;-63
2022/01/21 10:02:20;;;;;;;60.63;12.52;;;5.10;90.40;;;;;;6177476;23;20010;-61
2022/01/21 10:04:52;;;;;;;57.28;9.75;;;5.10;90.30;;;;;;6232276;23;20130;-61
2022/01/21 10:07:19;;;;;;;60.83;11.45;;;4.90;90.20;;;;;;6207967;23;20028;-62
2022/01/21 10:09:46;;;;;;;73.10;11.15;;;5.10;90.20;;;;;;6206528;23;20012;-62
2022/01/21 10:12:12;;;;;;;63.67;11.70;;;5.10;90.20;;;;;;6178680;22;20081;-61
2022/01/21 10:14:38;;;;;;;69.47;12.25;;;5.10;90.20;;;;;;6178688;23;20012;-60
2022/01/21 10:17:05;;;;;;;61.42;11.15;;;5.10;90.20;;;;;;6204595;23;20146;-61
2022/01/21 10:19:31;;;;;;;73.60;13.00;;;5.10;90.10;;;;;;6180417;23;20061;-62
2022/01/21 10:22:10;;;;;;;62.67;11.10;;;5.10;90.00;;;;;;6204329;23;20051;-60
2022/01/21 10:24:49;;;;;;;64.88;11.05;;;5.20;90.00;;;;;;6155989;23;20008;-60
2022/01/21 10:27:25;;;;;;;61.42;8.95;;;5.20;90.00;;;;;;6206460;23;19996;-60
2022/01/21 10:29:51;;;;;;;46.03;9.43;;;5.20;89.80;;;;;;6202399;23;20004;-61
2022/01/21 10:32:16;;;;;;;53.92;9.23;;;5.20;89.70;;;;;;6201391;23;20494;-62
2022/01/21 10:34:44;;;;;;;54.03;9.60;;;5.20;89.70;;;;;;6179072;23;20013;-63
2022/01/21 10:37:34;;;;;;;56.70;9.35;;;5.20;89.60;;;;;;6204033;23;20000;-62
2022/01/21 10:40:08;;;;;;;53.22;8.93;;;5.20;89.40;;;;;;6227038;23;20000;-61
2022/01/21 10:42:33;;;;;;;54.30;8.98;;;5.20;89.30;;;;;;6154341;23;20083;-62
2022/01/21 10:44:59;;;;;;;59.15;8.85;;;5.20;89.20;;;;;;6199268;23;20145;-63
2022/01/21 10:47:26;;;;;;;55.33;9.10;;;5.20;89.10;;;;;;6204115;23;20537;-61
2022/01/21 10:49:59;;;;;;;56.83;8.90;;;5.20;88.90;;;;;;6202815;23;20066;-62
2022/01/21 10:52:51;;;;;;;48.72;9.20;;;5.30;88.90;;;;;;6200955;23;20004;-62
2022/01/21 10:55:34;;;;;;;78.75;10.00;;;5.20;88.80;;;;;;6204117;23;20120;-63
2022/01/21 10:58:11;;;;;;;53.30;9.60;;;5.30;88.70;;;;;;6177017;23;20126;-62
2022/01/21 11:00:37;;;;;;;57.65;9.27;;;5.30;88.60;;;;;;6149341;22;20432;-60
2022/01/21 11:03:11;;;;;;;52.90;8.93;;;5.30;88.60;;;;;;6177488;23;20036;-60
2022/01/21 11:05:41;;;;;;;62.63;8.95;;;5.30;88.60;;;;;;6176786;23;20007;-61
2022/01/21 11:08:09;;;;;;;65.80;8.23;;;5.30;88.60;;;;;;6181587;23;20455;-60
2022/01/21 11:10:39;;;;;;;59.92;8.85;;;5.30;88.50;;;;;;6204234;22;20030;-61
2022/01/21 11:13:18;;;;;;;74.20;11.05;;;5.30;88.50;;;;;;6205698;23;20050;-60
2022/01/21 11:15:48;;;;;;;53.97;8.55;;;5.20;88.50;;;;;;6231108;22;20004;-62
2022/01/21 11:18:16;;;;;;;49.22;8.75;;;5.30;88.50;;;;;;6177594;23;20000;-59
2022/01/21 11:20:45;;;;;;;74.47;9.50;;;5.30;88.50;;;;;;6204235;23;20073;-63
2022/01/21 11:23:11;;;;;;;81.60;9.32;;;5.30;88.50;;;;;;6229608;23;20130;-62
2022/01/21 11:25:48;;;;;;;83.88;10.68;;;5.30;88.50;;;;;;6153435;23;20112;-60
2022/01/21 11:28:24;;;;;;;64.55;9.95;;;5.30;88.50;;;;;;6200725;23;20869;-61
2022/01/21 11:30:50;;;;;;;62.70;8.85;;;5.30;88.30;;;;;;6176799;23;20426;-63
2022/01/21 11:33:16;;;;;;;70.40;9.45;;;5.40;88.20;;;;;;6179916;23;20071;-63
2022/01/21 11:35:42;;;;;;;63.50;10.88;;;5.40;88.20;;;;;;6203685;23;20077;-61
2022/01/21 11:38:09;;;;;;;61.67;10.63;;;5.40;88.30;;;;;;6201538;23;20430;-62
2022/01/21 11:40:34;;;;;;;75.22;10.10;;;5.40;88.10;;;;;;6203828;22;20008;-62
2022/01/21 11:43:01;;;;;;;59.08;9.27;;;5.40;88.00;;;;;;6179314;23;20078;-62
2022/01/21 11:50:45;;;;;;;84.35;10.73;;;5.30;87.70;;;;;;6186636;23;20326;-63
2022/01/21 11:53:11;;;;;;;64.18;10.52;;;5.40;87.80;;;;;;6225351;22;20094;-63
2022/01/21 11:55:45;;;;;;;63.67;9.48;;;5.40;87.60;;;;;;6203981;23;20102;-64
2022/01/21 11:58:18;;;;;;;68.97;10.63;;;5.40;87.50;;;;;;6157684;23;20595;-62
2022/01/21 12:00:45;;;;;;;70.07;11.07;;;5.40;87.30;;;;;;6174037;23;20012;-63
2022/01/21 12:03:10;;;;;;;79.20;13.00;;;5.40;87.00;;;;;;6145632;23;20008;-62
2022/01/21 12:05:36;;;;;;;79.22;10.82;;;5.40;87.00;;;;;;6199154;23;20055;-61
2022/01/21 12:08:05;;;;;;;68.65;9.10;;;5.40;87.30;;;;;;6201618;23;20004;-62
2022/01/21 12:10:36;;;;;;;85.43;10.77;;;5.40;87.00;;;;;;6196049;23;20000;-61
2022/01/21 12:13:12;;;;;;;80.82;10.32;;;5.40;86.90;;;;;;6172668;23;20008;-63
2022/01/21 12:18:22;;;;;;;109.03;13.40;;;5.50;86.90;;;;;;6223158;22;20522;-62
2022/01/21 12:20:58;;;;;;;126.50;18.20;;;5.50;86.80;;;;;;6128623;23;20092;-62
2022/01/21 12:23:25;;;;;;;84.72;12.50;;;5.50;86.80;;;;;;6079338;23;20066;-61
2022/01/21 12:26:12;;;;;;;93.05;11.13;;;5.50;86.60;;;;;;6129239;23;20100;-62
2022/01/21 12:28:47;;;;;;;107.35;10.65;;;5.50;86.50;;;;;;6134635;23;20010;-62
2022/01/21 12:31:15;;;;;;;;;;;5.50;86.40;;;;;;6085558;23;20017;-62
2022/01/21 12:36:16;;;;;;;135.82;15.07;;;5.50;86.00;;;;;;6137969;23;20021;-61
2022/01/21 12:41:15;;;;;;;91.40;13.23;;;5.50;85.80;;;;;;6112221;23;20040;-61
2022/01/21 12:43:50;;;;;;;104.47;13.00;;;5.50;85.70;;;;;;6138081;23;20049;-61
2022/01/21 12:46:22;;;;;;;84.40;13.67;;;5.50;85.90;;;;;;6136729;23;20017;-62
2022/01/21 12:48:48;;;;;;;107.35;13.77;;;5.50;85.60;;;;;;6111569;23;20249;-62
2022/01/21 12:51:34;;;;;;;121.20;12.55;;;5.50;85.60;;;;;;6105684;23;20111;-61
2022/01/21 12:56:53;;;;;;;89.82;13.20;;;5.50;85.50;;;;;;6207454;23;20058;-60
2022/01/21 12:59:21;;;;;;;103.50;13.45;;;5.50;85.30;;;;;;6204463;23;19996;-61
2022/01/21 13:01:46;;;;;;;78.13;12.77;;;5.50;85.30;;;;;;6205560;23;19992;-61
2022/01/21 13:04:21;;;;;;;126.65;15.38;;;5.50;85.20;;;;;;6202332;23;20016;-61
2022/01/21 13:07:06;;;;;;;101.45;14.43;;;5.60;85.20;;;;;;6208662;23;20106;-61
2022/01/21 13:10:01;;;;;;;112.40;15.05;;;5.60;85.20;;;;;;6207667;23;20083;-63
2022/01/21 13:15:43;;;;;;;118.43;13.07;;;5.60;84.80;;;;;;6209088;23;20535;-63
2022/01/21 13:18:28;;;;;;;118.70;14.30;;;5.60;84.40;;;;;;6200027;23;20101;-63
2022/01/21 13:20:57;;;;;;;101.75;13.45;;;5.60;84.20;;;;;;6177110;23;20015;-61
2022/01/21 13:23:43;;;;;;;115.15;13.82;;;5.60;84.20;;;;;;6179036;23;20507;-61
2022/01/21 13:26:13;;;;;;;78.38;11.48;;;5.60;83.80;;;;;;6176853;22;20157;-62
2022/01/21 13:29:00;;;;;;;124.32;13.73;;;5.60;83.40;;;;;;6177308;23;20004;-60
2022/01/21 13:31:27;;;;;;;90.18;12.63;;;5.70;83.40;;;;;;6202459;23;20091;-60
2022/01/21 13:33:52;;;;;;;116.82;12.68;;;5.60;83.30;;;;;;6203125;23;20063;-61
2022/01/21 13:36:38;;;;;;;101.22;12.93;;;5.70;83.00;;;;;;6178853;23;20410;-62
2022/01/21 13:39:10;;;;;;;126.18;15.02;;;5.70;82.80;;;;;;6178511;22;20369;-63
2022/01/21 13:42:01;;;;;;;108.07;13.63;;;5.70;82.70;;;;;;6230865;23;20046;-62
2022/01/21 13:44:26;;;;;;;85.03;12.40;;;5.70;82.50;;;;;;6227864;22;20082;-61
2022/01/21 13:46:52;;;;;;;122.47;14.20;;;5.80;82.30;;;;;;6229131;23;20000;-61
2022/01/21 13:49:21;;;;;;;110.53;12.52;;;5.80;82.20;;;;;;6199625;23;20051;-61